Time;durP1;ratioP1;P1;durP2;ratioP2;P2;SDS_P1;SDS_P2;PMS_P1;PMS_P2;Temp;Humidity;BMP_temperature;BMP_pressure;BME280_temperature;BME280_humidity;BME280_pressure;Samples;Min_cycle;Max_cycle;Signal;HPM_P1;HPM_P2
2022/10/13 05:00:13;;;;;;;25.53;16.10;;;13.70;97.20;;;;;;1700280;29;20207;-76
2022/10/13 05:01:05;;;;;;;20.20;15.60;;;13.60;97.20;;;;;;1700782;29;20210;-76
2022/10/13 05:01:57;;;;;;;23.33;15.20;;;13.60;97.20;;;;;;1700693;29;20616;-76
2022/10/13 05:02:48;;;;;;;17.50;14.38;;;13.60;97.20;;;;;;1700767;29;20343;-76
2022/10/13 05:03:39;;;;;;;15.67;13.50;;;13.60;97.20;;;;;;1700843;29;20198;-76
2022/10/13 05:04:30;;;;;;;22.77;16.35;;;13.60;97.20;;;;;;1700444;29;20214;-77
2022/10/13 05:05:22;;;;;;;29.47;21.87;;;13.60;97.20;;;;;;1700025;29;20210;-76
2022/10/13 05:06:14;;;;;;;23.38;19.15;;;13.60;97.20;;;;;;1700452;29;20583;-76
2022/10/13 05:07:06;;;;;;;22.52;18.15;;;13.60;97.20;;;;;;1700667;29;20217;-76
2022/10/13 05:07:57;;;;;;;20.70;17.63;;;13.60;97.20;;;;;;1700758;29;20234;-76
2022/10/13 05:08:49;;;;;;;23.47;16.33;;;13.60;97.20;;;;;;1700572;29;20201;-75
2022/10/13 05:09:39;;;;;;;29.20;21.02;;;13.60;97.20;;;;;;1700416;29;20251;-75
2022/10/13 05:10:31;;;;;;;27.00;19.83;;;13.60;97.20;;;;;;1700319;29;20235;-75
2022/10/13 05:11:23;;;;;;;23.67;17.17;;;13.60;97.20;;;;;;1700663;29;20207;-75
2022/10/13 05:12:15;;;;;;;21.00;16.88;;;13.60;97.20;;;;;;1700676;29;20210;-74
2022/10/13 05:13:06;;;;;;;27.33;19.48;;;13.60;97.20;;;;;;1700708;29;20246;-74
2022/10/13 05:13:58;;;;;;;19.77;17.23;;;13.60;97.20;;;;;;1700740;29;20661;-76
2022/10/13 05:14:49;;;;;;;21.20;17.98;;;13.60;97.20;;;;;;1700699;29;20875;-77
2022/10/13 05:15:42;;;;;;;22.43;17.10;;;13.60;97.20;;;;;;1696926;29;20586;-77
2022/10/13 05:16:33;;;;;;;25.98;18.00;;;13.60;97.20;;;;;;1699663;29;20262;-76
2022/10/13 05:17:25;;;;;;;21.63;16.90;;;13.70;97.20;;;;;;1700351;29;20215;-77
2022/10/13 05:18:16;;;;;;;26.60;18.48;;;13.60;97.20;;;;;;1700234;29;20207;-77
2022/10/13 05:19:08;;;;;;;25.00;19.03;;;13.60;97.20;;;;;;1700639;29;20665;-77
2022/10/13 05:19:59;;;;;;;25.70;18.13;;;13.60;97.20;;;;;;1699852;29;20199;-77
2022/10/13 05:20:51;;;;;;;23.50;15.87;;;13.60;97.20;;;;;;1700134;29;20211;-75
2022/10/13 05:21:43;;;;;;;22.02;16.52;;;13.60;97.20;;;;;;1700678;29;20211;-76
2022/10/13 05:22:34;;;;;;;20.63;16.15;;;13.60;97.20;;;;;;1700493;29;20292;-76
2022/10/13 05:23:26;;;;;;;20.50;16.58;;;13.50;97.20;;;;;;1700473;29;20230;-77
2022/10/13 05:24:19;;;;;;;18.80;16.80;;;13.50;97.20;;;;;;1700414;29;20206;-76
2022/10/13 05:25:10;;;;;;;25.92;17.63;;;13.50;97.20;;;;;;1700597;29;20204;-76
2022/10/13 05:26:04;;;;;;;19.30;16.10;;;13.50;97.20;;;;;;1700609;29;20277;-76
2022/10/13 05:26:54;;;;;;;21.90;16.65;;;13.50;97.20;;;;;;1700303;29;20203;-76
2022/10/13 05:27:46;;;;;;;23.20;17.30;;;13.50;97.20;;;;;;1700394;29;20234;-77
2022/10/13 05:28:38;;;;;;;20.35;16.95;;;13.50;97.20;;;;;;1700324;29;20215;-77
2022/10/13 05:29:29;;;;;;;19.95;16.65;;;13.50;97.20;;;;;;1700626;29;20214;-77
2022/10/13 05:30:20;;;;;;;21.95;16.80;;;13.50;97.20;;;;;;1699716;29;20680;-76
2022/10/13 05:31:16;;;;;;;21.37;16.63;;;13.50;97.20;;;;;;1700569;29;20570;-77
2022/10/13 05:32:07;;;;;;;22.73;16.75;;;13.50;97.20;;;;;;1700587;29;20207;-76
2022/10/13 05:32:59;;;;;;;23.60;17.38;;;13.50;97.20;;;;;;1700441;29;20206;-76
2022/10/13 05:33:51;;;;;;;22.55;16.88;;;13.50;97.20;;;;;;1700553;29;20665;-76
2022/10/13 05:34:42;;;;;;;22.75;17.65;;;13.50;97.20;;;;;;1700661;29;20195;-77
2022/10/13 05:35:33;;;;;;;19.52;17.27;;;13.50;97.20;;;;;;1700413;29;20870;-76
2022/10/13 05:36:28;;;;;;;24.60;16.60;;;13.50;97.20;;;;;;1700592;29;20261;-75
2022/10/13 05:37:21;;;;;;;20.77;18.10;;;13.50;97.20;;;;;;1699754;29;20501;-77
2022/10/13 05:38:13;;;;;;;23.73;18.05;;;13.50;97.20;;;;;;1700464;29;20199;-77
2022/10/13 05:39:06;;;;;;;20.27;17.48;;;13.40;97.20;;;;;;1700368;29;20222;-75
2022/10/13 05:39:58;;;;;;;23.95;18.13;;;13.50;97.20;;;;;;1699917;29;20199;-77
2022/10/13 05:40:50;;;;;;;26.77;18.60;;;13.40;97.20;;;;;;1700204;29;20226;-75
2022/10/13 05:41:42;;;;;;;22.52;17.75;;;13.50;97.20;;;;;;1700549;29;20214;-76
2022/10/13 05:42:34;;;;;;;17.70;15.65;;;13.40;97.20;;;;;;1700289;29;20584;-77
2022/10/13 05:43:26;;;;;;;25.85;17.48;;;13.40;97.20;;;;;;1700490;29;20651;-77
2022/10/13 05:44:17;;;;;;;24.30;17.20;;;13.40;97.20;;;;;;1700446;29;20214;-77
2022/10/13 05:45:10;;;;;;;19.53;16.00;;;13.40;97.20;;;;;;1700578;29;20214;-77
2022/10/13 05:46:01;;;;;;;18.27;14.57;;;13.40;97.20;;;;;;1700498;29;20207;-78
2022/10/13 05:46:54;;;;;;;18.70;15.63;;;13.40;97.20;;;;;;1699949;29;20205;-77
2022/10/13 05:47:45;;;;;;;21.77;16.23;;;13.40;97.20;;;;;;1700388;29;20466;-77
2022/10/13 05:48:38;;;;;;;19.33;15.93;;;13.40;97.20;;;;;;1700402;29;20211;-77
2022/10/13 05:49:28;;;;;;;21.55;15.50;;;13.30;97.20;;;;;;1700401;29;20582;-77
2022/10/13 05:50:20;;;;;;;21.67;16.07;;;13.30;97.20;;;;;;1699710;29;20585;-77
2022/10/13 05:51:15;;;;;;;20.00;16.73;;;13.30;97.20;;;;;;1700334;29;20203;-76
2022/10/13 05:52:12;;;;;;;20.40;15.10;;;13.30;97.20;;;;;;1700478;29;20203;-78
2022/10/13 05:53:02;;;;;;;18.63;15.73;;;13.30;97.20;;;;;;1700436;29;20207;-77
2022/10/13 05:54:03;;;;;;;21.10;16.80;;;13.30;97.20;;;;;;1700076;29;20207;-76
2022/10/13 05:54:56;;;;;;;23.02;16.17;;;13.30;97.20;;;;;;1700312;29;20214;-77
2022/10/13 05:55:49;;;;;;;20.20;16.20;;;13.30;97.20;;;;;;1700412;29;20642;-77
2022/10/13 05:56:43;;;;;;;18.25;15.95;;;13.30;97.20;;;;;;1700026;29;20203;-77
2022/10/13 05:57:38;;;;;;;18.83;15.13;;;13.30;97.20;;;;;;1700488;29;20286;-83
2022/10/13 05:58:29;;;;;;;20.05;17.08;;;13.40;97.20;;;;;;1704122;29;20250;-82
2022/10/13 05:59:21;;;;;;;25.80;16.30;;;13.40;97.20;;;;;;1705410;29;20203;-84
2022/10/13 06:00:16;;;;;;;22.63;15.90;;;13.40;97.20;;;;;;1703730;29;20195;-83
2022/10/13 06:01:10;;;;;;;19.27;16.25;;;13.40;97.20;;;;;;1704608;29;20203;-83
2022/10/13 06:02:06;;;;;;;19.95;15.77;;;13.40;97.20;;;;;;1705839;29;20214;-83
2022/10/13 06:03:02;;;;;;;21.33;15.35;;;13.40;97.20;;;;;;1704761;29;20214;-83
2022/10/13 06:03:57;;;;;;;20.25;15.82;;;13.40;97.20;;;;;;1705132;29;20210;-80
2022/10/13 06:04:54;;;;;;;19.77;16.27;;;13.40;97.20;;;;;;1705124;29;20243;-84
2022/10/13 06:05:46;;;;;;;23.70;17.13;;;13.40;97.20;;;;;;1704427;29;20195;-76
2022/10/13 06:06:38;;;;;;;19.25;16.85;;;13.40;97.20;;;;;;1700035;29;20203;-77
2022/10/13 06:07:30;;;;;;;22.20;16.85;;;13.40;97.20;;;;;;1700304;29;20214;-76
2022/10/13 06:08:21;;;;;;;27.40;15.80;;;13.30;97.20;;;;;;1700349;29;20278;-76
2022/10/13 06:09:12;;;;;;;22.40;17.38;;;13.30;97.20;;;;;;1700422;29;20207;-78
2022/10/13 06:10:05;;;;;;;21.60;15.73;;;13.30;97.20;;;;;;1701749;29;20294;-79
2022/10/13 06:10:56;;;;;;;26.45;17.52;;;13.30;97.20;;;;;;1703804;29;20490;-80
2022/10/13 06:11:47;;;;;;;24.77;16.87;;;13.30;97.20;;;;;;1704081;29;20207;-80
2022/10/13 06:12:38;;;;;;;19.88;17.50;;;13.30;97.20;;;;;;1703042;29;20450;-77
2022/10/13 06:13:30;;;;;;;25.88;17.10;;;13.30;97.20;;;;;;1700218;29;20199;-76
2022/10/13 06:14:21;;;;;;;22.23;16.98;;;13.30;97.20;;;;;;1701521;29;20218;-77
2022/10/13 06:15:13;;;;;;;20.83;16.57;;;13.30;97.20;;;;;;1701327;29;20238;-77
2022/10/13 06:16:04;;;;;;;24.50;16.85;;;13.30;97.20;;;;;;1700992;29;20211;-77
2022/10/13 06:16:56;;;;;;;22.67;17.52;;;13.30;97.20;;;;;;1700746;29;20254;-77
2022/10/13 06:17:48;;;;;;;24.05;17.48;;;13.30;97.20;;;;;;1701283;29;20210;-77
2022/10/13 06:18:39;;;;;;;23.90;16.40;;;13.30;97.20;;;;;;1701216;29;20346;-76
2022/10/13 06:19:30;;;;;;;22.80;17.40;;;13.40;97.20;;;;;;1700740;29;20203;-76
2022/10/13 06:20:22;;;;;;;20.93;16.10;;;13.40;97.20;;;;;;1699703;29;20191;-76
2022/10/13 06:21:13;;;;;;;24.13;16.95;;;13.40;97.20;;;;;;1700937;29;20218;-77
2022/10/13 06:22:05;;;;;;;22.17;16.73;;;13.40;97.20;;;;;;1700966;29;20229;-77
2022/10/13 06:22:55;;;;;;;21.58;18.25;;;13.40;97.20;;;;;;1700843;29;20203;-76
2022/10/13 06:23:47;;;;;;;24.80;17.33;;;13.40;97.20;;;;;;1700958;29;20206;-77
2022/10/13 06:24:38;;;;;;;22.88;16.73;;;13.40;97.20;;;;;;1700833;29;20450;-76
2022/10/13 06:25:30;;;;;;;21.80;17.40;;;13.40;97.20;;;;;;1700873;29;20221;-77
2022/10/13 06:26:20;;;;;;;26.42;17.08;;;13.40;97.20;;;;;;1700858;29;20218;-77
2022/10/13 06:27:12;;;;;;;22.10;17.10;;;13.40;97.20;;;;;;1700671;29;20675;-76
2022/10/13 06:28:03;;;;;;;20.90;17.65;;;13.40;97.20;;;;;;1701064;29;20207;-77
2022/10/13 06:28:55;;;;;;;24.23;18.30;;;13.40;97.20;;;;;;1700909;29;20196;-76
2022/10/13 06:29:45;;;;;;;21.25;16.30;;;13.50;97.20;;;;;;1700407;29;20468;-77
2022/10/13 06:30:38;;;;;;;20.40;17.97;;;13.50;97.20;;;;;;1700351;29;20230;-77
2022/10/13 06:31:29;;;;;;;23.52;18.23;;;13.50;97.20;;;;;;1700952;29;20222;-76
2022/10/13 06:32:20;;;;;;;21.13;17.10;;;13.50;97.20;;;;;;1701003;29;20195;-76
2022/10/13 06:33:12;;;;;;;24.98;18.60;;;13.50;97.20;;;;;;1700907;29;20211;-77
2022/10/13 06:34:04;;;;;;;21.85;16.77;;;13.50;97.20;;;;;;1701015;29;20575;-77
2022/10/13 06:34:55;;;;;;;19.38;16.85;;;13.50;97.20;;;;;;1701011;29;20741;-77
2022/10/13 06:35:46;;;;;;;21.23;15.87;;;13.50;97.20;;;;;;1701560;29;20727;-77
2022/10/13 06:36:37;;;;;;;22.90;16.27;;;13.50;97.20;;;;;;1701412;29;20561;-77
2022/10/13 06:37:29;;;;;;;22.20;17.50;;;13.50;97.20;;;;;;1701527;29;20225;-76
2022/10/13 06:38:20;;;;;;;21.88;17.30;;;13.60;97.20;;;;;;1701558;29;20203;-76
2022/10/13 06:39:11;;;;;;;21.17;16.83;;;13.60;97.20;;;;;;1701560;29;20207;-76
2022/10/13 06:40:02;;;;;;;23.13;17.15;;;13.60;97.20;;;;;;1700661;29;20207;-76
2022/10/13 06:40:54;;;;;;;23.05;17.75;;;13.60;97.20;;;;;;1701227;29;20215;-76
2022/10/13 06:41:45;;;;;;;23.67;17.83;;;13.60;97.20;;;;;;1701467;29;20293;-76
2022/10/13 06:42:37;;;;;;;25.10;16.97;;;13.60;97.20;;;;;;1701418;29;20207;-76
2022/10/13 06:43:27;;;;;;;20.88;16.25;;;13.60;97.20;;;;;;1701467;29;20199;-76
2022/10/13 06:44:19;;;;;;;21.97;16.10;;;13.70;97.20;;;;;;1701522;29;20687;-77
2022/10/13 06:45:10;;;;;;;20.13;16.35;;;13.70;97.20;;;;;;1701493;29;20852;-76
2022/10/13 06:46:02;;;;;;;24.30;16.43;;;13.70;97.20;;;;;;1701533;29;20217;-76
2022/10/13 06:46:53;;;;;;;21.95;15.85;;;13.70;97.20;;;;;;1701161;29;20451;-76
2022/10/13 06:47:44;;;;;;;23.73;16.53;;;13.70;97.20;;;;;;1701764;29;20203;-77
2022/10/13 06:48:37;;;;;;;25.75;17.02;;;13.70;97.20;;;;;;1702244;29;20203;-76
2022/10/13 06:49:29;;;;;;;21.80;16.63;;;13.70;97.20;;;;;;1701381;29;20689;-75
2022/10/13 06:50:19;;;;;;;19.35;16.02;;;13.70;97.20;;;;;;1700432;29;20202;-76
2022/10/13 06:51:11;;;;;;;19.60;16.70;;;13.70;97.20;;;;;;1701146;29;20220;-76
2022/10/13 06:52:03;;;;;;;24.10;16.10;;;13.80;97.20;;;;;;1701432;29;20451;-76
2022/10/13 06:52:55;;;;;;;24.95;18.08;;;13.80;97.20;;;;;;1701343;29;20207;-76
2022/10/13 06:53:46;;;;;;;21.98;16.08;;;13.80;97.20;;;;;;1701435;29;20662;-76
2022/10/13 06:54:37;;;;;;;23.13;17.33;;;13.80;97.20;;;;;;1701444;29;20195;-76
2022/10/13 06:55:28;;;;;;;23.20;16.92;;;13.80;97.20;;;;;;1701491;29;20207;-77
2022/10/13 06:56:20;;;;;;;24.00;16.37;;;13.80;97.20;;;;;;1701418;29;20689;-76
2022/10/13 06:57:11;;;;;;;19.15;17.15;;;13.80;97.20;;;;;;1701207;29;20217;-76
2022/10/13 06:58:02;;;;;;;20.60;16.90;;;13.80;97.20;;;;;;1701360;29;20692;-76
2022/10/13 06:58:53;;;;;;;24.38;16.63;;;13.80;97.20;;;;;;1701349;29;20454;-76
2022/10/13 06:59:45;;;;;;;23.70;16.93;;;13.80;97.20;;;;;;1700905;29;20213;-76
2022/10/13 07:00:36;;;;;;;23.38;17.05;;;13.80;97.20;;;;;;1700808;29;20219;-76
2022/10/13 07:01:28;;;;;;;22.38;15.63;;;13.80;97.20;;;;;;1701282;29;20344;-76
2022/10/13 07:02:18;;;;;;;20.60;16.45;;;13.80;97.20;;;;;;1701366;29;20210;-76
2022/10/13 07:03:14;;;;;;;20.70;15.60;;;13.80;97.20;;;;;;1701368;29;20222;-76
2022/10/13 07:04:06;;;;;;;23.02;17.38;;;13.90;97.20;;;;;;1701417;29;20214;-76
2022/10/13 07:04:57;;;;;;;21.75;16.17;;;13.90;97.20;;;;;;1701241;29;20218;-76
2022/10/13 07:05:48;;;;;;;21.10;15.23;;;13.90;97.20;;;;;;1701310;29;20210;-76
2022/10/13 07:06:40;;;;;;;22.37;15.90;;;13.90;97.20;;;;;;1701040;29;20206;-77
2022/10/13 07:07:31;;;;;;;22.02;15.35;;;13.90;97.20;;;;;;1701376;29;20219;-76
2022/10/13 07:08:23;;;;;;;20.77;15.53;;;13.90;97.20;;;;;;1701411;29;20295;-76
2022/10/13 07:09:14;;;;;;;19.33;15.63;;;14.00;97.20;;;;;;1701269;29;20631;-76
2022/10/13 07:10:06;;;;;;;18.63;14.23;;;14.00;97.20;;;;;;1700610;29;20257;-76
2022/10/13 07:10:57;;;;;;;19.60;14.60;;;14.00;97.20;;;;;;1701049;29;20230;-76
2022/10/13 07:11:49;;;;;;;19.03;15.67;;;14.00;97.20;;;;;;1701449;29;20199;-76
2022/10/13 07:12:40;;;;;;;20.30;16.13;;;14.00;97.20;;;;;;1701321;29;20447;-76
2022/10/13 07:13:31;;;;;;;19.40;14.80;;;14.10;97.20;;;;;;1701249;29;20661;-76
2022/10/13 07:14:22;;;;;;;16.95;14.43;;;14.10;97.20;;;;;;1701339;29;20207;-75
2022/10/13 07:15:14;;;;;;;18.73;14.60;;;14.10;97.20;;;;;;1701291;29;20207;-76
2022/10/13 07:16:06;;;;;;;20.48;15.13;;;14.10;97.20;;;;;;1701307;29;20207;-76
2022/10/13 07:16:58;;;;;;;19.23;15.60;;;14.10;97.20;;;;;;1701057;29;20669;-76
2022/10/13 07:17:50;;;;;;;17.98;14.15;;;14.10;97.20;;;;;;1701325;29;20203;-76
2022/10/13 07:18:42;;;;;;;22.58;15.43;;;14.10;97.20;;;;;;1701258;29;20724;-76
2022/10/13 07:19:34;;;;;;;18.02;14.70;;;14.20;97.20;;;;;;1701201;29;20203;-76
2022/10/13 07:20:26;;;;;;;17.60;14.65;;;14.20;97.20;;;;;;1700093;29;20836;-76
2022/10/13 07:21:17;;;;;;;18.75;14.45;;;14.20;97.20;;;;;;1700726;29;22217;-76
2022/10/13 07:22:09;;;;;;;16.90;14.52;;;14.20;97.20;;;;;;1700990;29;20199;-76
2022/10/13 07:23:00;;;;;;;18.13;13.98;;;14.20;97.20;;;;;;1701291;29;20207;-76
2022/10/13 07:23:52;;;;;;;21.43;14.10;;;14.20;97.20;;;;;;1700948;29;20203;-76
2022/10/13 07:24:42;;;;;;;25.35;15.23;;;14.20;97.20;;;;;;1701214;29;20795;-76
2022/10/13 07:25:34;;;;;;;18.90;14.73;;;14.20;97.20;;;;;;1700226;29;20581;-76
2022/10/13 07:26:25;;;;;;;18.17;15.60;;;14.30;97.20;;;;;;1701200;29;20214;-76
2022/10/13 07:27:17;;;;;;;20.40;16.17;;;14.30;97.20;;;;;;1700978;29;20204;-76
2022/10/13 07:28:07;;;;;;;18.05;15.10;;;14.30;97.20;;;;;;1701335;29;20206;-76
2022/10/13 07:28:59;;;;;;;19.47;15.63;;;14.30;97.20;;;;;;1701140;29;20203;-77
2022/10/13 07:29:50;;;;;;;18.70;15.07;;;14.30;97.20;;;;;;1700612;29;20207;-76
2022/10/13 07:30:41;;;;;;;16.70;14.47;;;14.30;97.20;;;;;;1700696;29;20222;-76
2022/10/13 07:31:32;;;;;;;17.83;14.30;;;14.30;97.20;;;;;;1701299;29;20219;-76
2022/10/13 07:32:24;;;;;;;18.30;14.97;;;14.30;97.20;;;;;;1700936;29;20199;-76
2022/10/13 07:33:15;;;;;;;20.20;14.20;;;14.30;97.20;;;;;;1701248;29;20878;-76
2022/10/13 07:34:07;;;;;;;18.97;13.50;;;14.30;97.20;;;;;;1701183;29;20692;-76
2022/10/13 07:34:59;;;;;;;20.60;15.07;;;14.30;97.20;;;;;;1701064;29;20615;-76
2022/10/13 07:35:51;;;;;;;19.52;15.88;;;14.30;97.20;;;;;;1701146;29;20203;-76
2022/10/13 07:36:42;;;;;;;24.10;15.60;;;14.30;97.20;;;;;;1701008;29;20207;-76
2022/10/13 07:37:33;;;;;;;16.60;13.80;;;14.30;97.20;;;;;;1701104;29;20707;-76
2022/10/13 07:38:24;;;;;;;17.85;14.48;;;14.30;97.20;;;;;;1701130;29;20459;-76
2022/10/13 07:39:16;;;;;;;17.13;14.00;;;14.30;97.20;;;;;;1701086;29;20203;-76
2022/10/13 07:40:08;;;;;;;17.08;13.73;;;14.30;97.20;;;;;;1700370;29;20214;-76
2022/10/13 07:41:01;;;;;;;23.00;14.95;;;14.30;97.20;;;;;;1694350;29;20220;-77
2022/10/13 07:41:52;;;;;;;24.05;14.85;;;14.30;97.20;;;;;;1694472;29;20270;-76
2022/10/13 07:42:43;;;;;;;21.17;14.90;;;14.30;97.20;;;;;;1694659;29;20203;-76
2022/10/13 07:43:34;;;;;;;19.80;15.07;;;14.30;97.20;;;;;;1694469;29;20593;-76
2022/10/13 07:44:26;;;;;;;20.50;15.50;;;14.30;97.20;;;;;;1694552;29;20200;-76
2022/10/13 07:45:17;;;;;;;16.75;14.30;;;14.30;97.20;;;;;;1694560;29;20686;-76
2022/10/13 07:46:11;;;;;;;21.48;16.23;;;14.30;97.20;;;;;;1694523;29;20250;-76
2022/10/13 07:47:02;;;;;;;19.45;14.45;;;14.30;97.20;;;;;;1694388;29;20584;-77
2022/10/13 07:47:54;;;;;;;21.97;14.93;;;14.40;97.20;;;;;;1694696;29;20199;-78
2022/10/13 07:48:45;;;;;;;15.38;13.38;;;14.40;97.20;;;;;;1694474;29;20208;-77
2022/10/13 07:49:36;;;;;;;17.53;14.53;;;14.40;97.20;;;;;;1694223;29;20208;-77
2022/10/13 07:50:28;;;;;;;17.63;14.52;;;14.40;97.20;;;;;;1697248;29;20215;-77
2022/10/13 07:51:21;;;;;;;20.10;14.85;;;14.40;97.20;;;;;;1701004;29;20289;-76
2022/10/13 07:52:12;;;;;;;19.65;15.98;;;14.40;97.20;;;;;;1701123;29;20211;-76
2022/10/13 07:53:04;;;;;;;15.13;13.30;;;14.40;97.20;;;;;;1701225;29;20484;-76
2022/10/13 07:53:55;;;;;;;15.52;13.20;;;14.40;97.20;;;;;;1701153;29;20211;-76
2022/10/13 07:54:46;;;;;;;17.20;14.30;;;14.50;97.20;;;;;;1701015;29;20290;-76
2022/10/13 07:55:37;;;;;;;25.02;14.70;;;14.50;97.20;;;;;;1701013;29;20206;-76
2022/10/13 07:56:29;;;;;;;16.70;13.80;;;14.50;97.20;;;;;;1701111;29;20206;-76
2022/10/13 07:57:19;;;;;;;25.38;15.18;;;14.50;97.20;;;;;;1700795;29;20234;-76
2022/10/13 07:58:11;;;;;;;17.53;13.67;;;14.50;97.20;;;;;;1701022;29;20306;-76
2022/10/13 07:59:03;;;;;;;20.27;13.55;;;14.60;97.20;;;;;;1701063;29;20211;-77
2022/10/13 07:59:54;;;;;;;15.60;12.52;;;14.60;97.20;;;;;;1700564;29;21110;-76
2022/10/13 08:00:54;;;;;;;16.88;13.52;;;14.60;97.20;;;;;;1700459;29;20227;-76
2022/10/13 08:01:45;;;;;;;20.63;13.70;;;14.60;97.20;;;;;;1701051;29;20274;-76
2022/10/13 08:02:36;;;;;;;22.08;12.98;;;14.60;97.20;;;;;;1700920;29;20218;-77
2022/10/13 08:03:29;;;;;;;19.30;14.00;;;14.60;97.20;;;;;;1701085;29;20199;-76
2022/10/13 08:04:19;;;;;;;16.88;13.40;;;14.60;97.20;;;;;;1701016;29;20207;-77
2022/10/13 08:05:11;;;;;;;16.80;13.43;;;14.70;97.20;;;;;;1701029;29;20207;-76
2022/10/13 08:06:04;;;;;;;18.02;12.70;;;14.70;97.20;;;;;;1700894;29;20451;-76
2022/10/13 08:06:56;;;;;;;16.40;13.95;;;14.70;97.20;;;;;;1700681;29;20300;-77
2022/10/13 08:07:47;;;;;;;17.55;14.10;;;14.70;97.20;;;;;;1700868;29;20204;-76
2022/10/13 08:08:39;;;;;;;18.53;13.20;;;14.80;97.20;;;;;;1700986;29;20199;-77
2022/10/13 08:09:30;;;;;;;18.65;13.05;;;14.80;97.20;;;;;;1700821;29;20207;-76
2022/10/13 08:10:22;;;;;;;15.50;12.60;;;14.80;97.20;;;;;;1700025;29;20696;-77
2022/10/13 08:11:14;;;;;;;18.15;13.68;;;14.80;97.20;;;;;;1700898;29;20207;-77
2022/10/13 08:12:06;;;;;;;16.65;13.23;;;14.80;97.20;;;;;;1700898;29;20235;-77
2022/10/13 08:12:57;;;;;;;15.68;13.07;;;14.80;97.20;;;;;;1700899;29;20203;-76
2022/10/13 08:13:50;;;;;;;15.70;12.97;;;14.80;97.20;;;;;;1700989;29;20203;-77
2022/10/13 08:14:42;;;;;;;19.70;13.20;;;14.80;97.20;;;;;;1700937;29;20668;-77
2022/10/13 08:15:32;;;;;;;19.67;13.88;;;14.90;97.20;;;;;;1700799;29;20211;-77
2022/10/13 08:16:24;;;;;;;13.87;12.47;;;14.80;97.20;;;;;;1700962;29;20205;-76
2022/10/13 08:17:15;;;;;;;16.50;11.88;;;14.80;97.20;;;;;;1700771;29;20207;-77
2022/10/13 08:18:06;;;;;;;15.53;12.30;;;14.80;97.20;;;;;;1700909;28;20295;-77
2022/10/13 08:18:58;;;;;;;17.55;12.95;;;14.80;97.20;;;;;;1700908;29;20212;-76
2022/10/13 08:19:51;;;;;;;15.23;12.60;;;14.80;97.20;;;;;;1700394;29;20664;-77
2022/10/13 08:20:43;;;;;;;14.90;13.40;;;14.80;97.20;;;;;;1700377;29;20223;-77
2022/10/13 08:21:37;;;;;;;14.75;12.90;;;14.90;97.20;;;;;;1700779;29;20209;-76
2022/10/13 08:22:28;;;;;;;19.15;13.40;;;14.90;97.20;;;;;;1700915;29;20243;-77
2022/10/13 08:23:20;;;;;;;17.77;12.80;;;14.90;97.20;;;;;;1700798;29;20662;-77
2022/10/13 08:24:13;;;;;;;16.95;13.20;;;14.90;97.20;;;;;;1700936;29;20207;-76
2022/10/13 08:25:06;;;;;;;18.48;14.00;;;14.90;97.20;;;;;;1701026;29;20202;-76
2022/10/13 08:25:56;;;;;;;14.65;12.15;;;14.90;97.20;;;;;;1700778;29;20290;-76
2022/10/13 08:26:49;;;;;;;18.53;13.10;;;14.90;97.20;;;;;;1700571;29;20270;-77
2022/10/13 08:27:40;;;;;;;14.15;12.00;;;14.90;97.20;;;;;;1700790;29;20230;-76
2022/10/13 08:28:31;;;;;;;16.48;10.93;;;14.90;97.20;;;;;;1700697;29;20603;-76
2022/10/13 08:29:23;;;;;;;15.33;12.97;;;14.90;97.20;;;;;;1700898;29;20209;-76
2022/10/13 08:30:14;;;;;;;14.75;11.95;;;15.00;97.20;;;;;;1699816;29;20579;-76
2022/10/13 08:31:06;;;;;;;16.87;11.40;;;15.00;97.20;;;;;;1700669;29;20199;-76
2022/10/13 08:31:56;;;;;;;19.08;12.50;;;15.00;97.20;;;;;;1700689;29;20226;-76
2022/10/13 08:32:48;;;;;;;21.97;12.43;;;15.00;97.20;;;;;;1700899;29;20221;-77
2022/10/13 08:33:40;;;;;;;13.40;11.27;;;15.00;97.20;;;;;;1700852;29;20238;-76
2022/10/13 08:34:32;;;;;;;17.65;12.15;;;15.10;97.20;;;;;;1700748;29;20250;-77
2022/10/13 08:35:23;;;;;;;16.85;11.95;;;15.10;97.20;;;;;;1701116;29;20207;-76
2022/10/13 08:36:16;;;;;;;14.53;11.80;;;15.10;97.20;;;;;;1700750;29;20218;-77
2022/10/13 08:37:13;;;;;;;16.52;11.75;;;15.10;97.20;;;;;;1700260;29;20498;-76
2022/10/13 08:38:06;;;;;;;15.00;10.15;;;15.10;97.20;;;;;;1700831;29;20218;-77
2022/10/13 08:38:57;;;;;;;15.95;11.20;;;15.10;97.20;;;;;;1700741;29;20203;-77
2022/10/13 08:39:48;;;;;;;13.03;11.53;;;15.10;97.20;;;;;;1700258;29;20257;-77
2022/10/13 08:40:39;;;;;;;13.68;11.60;;;15.20;97.20;;;;;;1700336;29;20215;-76
2022/10/13 08:41:35;;;;;;;18.57;12.20;;;15.20;97.20;;;;;;1700763;29;20684;-76
2022/10/13 08:42:27;;;;;;;13.93;12.13;;;15.20;97.20;;;;;;1700624;29;20455;-76
2022/10/13 08:43:20;;;;;;;13.57;12.05;;;15.30;97.20;;;;;;1700657;29;20233;-76
2022/10/13 08:44:21;;;;;;;17.20;12.70;;;15.30;97.20;;;;;;1700698;29;20203;-77
2022/10/13 08:45:18;;;;;;;15.73;12.32;;;15.30;97.20;;;;;;1700737;29;20208;-76
2022/10/13 08:46:11;;;;;;;17.15;11.90;;;15.40;97.20;;;;;;1700693;29;20298;-77
2022/10/13 08:47:11;;;;;;;13.40;11.68;;;15.40;97.20;;;;;;1700526;29;20210;-77
2022/10/13 08:48:04;;;;;;;11.70;10.50;;;15.40;97.20;;;;;;1700716;29;20266;-77
2022/10/13 08:48:57;;;;;;;17.10;11.48;;;15.40;97.20;;;;;;1700735;29;20254;-76
2022/10/13 08:49:47;;;;;;;17.67;11.90;;;15.50;97.20;;;;;;1700235;29;20214;-77
2022/10/13 08:50:42;;;;;;;14.40;11.43;;;15.50;97.20;;;;;;1700197;29;20288;-77
2022/10/13 08:51:33;;;;;;;15.75;11.15;;;15.50;97.20;;;;;;1700700;29;20443;-76
2022/10/13 08:52:28;;;;;;;13.87;10.90;;;15.60;97.20;;;;;;1700729;29;20227;-77
2022/10/13 08:53:26;;;;;;;15.75;11.02;;;15.60;97.20;;;;;;1700630;29;20850;-77
2022/10/13 08:54:21;;;;;;;14.35;11.05;;;15.70;97.20;;;;;;1700740;29;20210;-77
2022/10/13 08:55:22;;;;;;;13.80;9.55;;;15.70;97.20;;;;;;1700653;29;20587;-77
2022/10/13 08:56:19;;;;;;;13.95;10.35;;;15.70;97.20;;;;;;1700743;29;20331;-77
2022/10/13 08:57:10;;;;;;;17.77;9.50;;;15.70;97.20;;;;;;1700395;29;20242;-76
2022/10/13 08:58:09;;;;;;;10.70;9.38;;;15.70;97.20;;;;;;1700620;29;20207;-77
2022/10/13 08:59:03;;;;;;;10.85;9.43;;;15.70;97.20;;;;;;1700737;29;20219;-76
2022/10/13 08:59:55;;;;;;;15.63;10.50;;;15.70;97.20;;;;;;1699824;29;20203;-77
2022/10/13 09:00:45;;;;;;;13.25;9.18;;;15.70;97.20;;;;;;1700609;29;20233;-77
2022/10/13 09:01:37;;;;;;;13.33;9.23;;;15.70;97.20;;;;;;1700633;29;20209;-76
2022/10/13 09:02:30;;;;;;;13.68;9.82;;;15.70;97.20;;;;;;1700622;29;20210;-76
2022/10/13 09:03:25;;;;;;;13.63;9.85;;;15.70;97.20;;;;;;1700720;29;20211;-76
2022/10/13 09:04:28;;;;;;;11.45;9.85;;;15.70;97.20;;;;;;1700712;29;20211;-76
2022/10/13 09:05:32;;;;;;;14.85;10.18;;;15.70;97.20;;;;;;1700684;29;20550;-76
2022/10/13 09:06:27;;;;;;;14.07;9.82;;;15.70;97.20;;;;;;1700736;29;20290;-77
2022/10/13 09:07:22;;;;;;;14.43;10.98;;;15.80;97.20;;;;;;1700318;29;20207;-77
2022/10/13 09:08:19;;;;;;;16.52;9.70;;;15.80;97.20;;;;;;1700634;29;20674;-77
2022/10/13 09:09:14;;;;;;;13.50;9.98;;;15.80;97.20;;;;;;1700743;29;20350;-77
2022/10/13 09:10:06;;;;;;;13.77;9.52;;;15.80;97.20;;;;;;1699912;29;20207;-77
2022/10/13 09:10:58;;;;;;;12.95;9.23;;;15.80;97.20;;;;;;1700401;29;20290;-77
2022/10/13 09:11:50;;;;;;;13.27;9.77;;;15.80;97.20;;;;;;1700610;29;20218;-77
2022/10/13 09:12:41;;;;;;;12.27;8.45;;;15.80;97.20;;;;;;1700584;29;20207;-77
2022/10/13 09:13:32;;;;;;;13.05;10.65;;;15.80;97.20;;;;;;1700700;29;20576;-77
2022/10/13 09:14:27;;;;;;;11.47;10.27;;;15.80;97.20;;;;;;1700707;29;20221;-77
2022/10/13 09:15:18;;;;;;;13.40;10.13;;;15.80;97.20;;;;;;1700853;29;20219;-77
2022/10/13 09:16:10;;;;;;;10.73;9.07;;;15.80;97.20;;;;;;1700597;29;20199;-77
2022/10/13 09:17:14;;;;;;;11.57;8.82;;;15.80;97.20;;;;;;1700486;29;20229;-77
2022/10/13 09:18:11;;;;;;;11.20;8.95;;;15.80;97.20;;;;;;1700649;29;20573;-77
2022/10/13 09:19:19;;;;;;;9.93;8.75;;;15.80;97.20;;;;;;1700766;29;20207;-78
2022/10/13 09:20:20;;;;;;;12.57;9.18;;;15.90;97.20;;;;;;1699906;29;20211;-77
2022/10/13 09:21:19;;;;;;;12.73;9.10;;;15.90;97.20;;;;;;1700636;29;20700;-76
2022/10/13 09:22:15;;;;;;;15.98;8.73;;;15.90;97.20;;;;;;1700619;29;20258;-76
2022/10/13 09:23:18;;;;;;;13.18;9.13;;;16.00;97.20;;;;;;1700650;29;20215;-76
2022/10/13 09:24:15;;;;;;;10.25;7.85;;;16.00;97.20;;;;;;1700161;29;20203;-76
2022/10/13 09:25:24;;;;;;;13.23;8.43;;;16.00;97.20;;;;;;1700242;29;20218;-77
2022/10/13 09:26:21;;;;;;;14.77;8.63;;;16.00;97.20;;;;;;1700569;29;20569;-77